Weather History for KHSP - January, 2000

Change the Weather History Date:

Saturday, January 8, 2000

  Actual Average Record
Temperature  
Mean Temperature 28 °F -  
Max Temperature 35 °F 34 °F 60 °F (1998)
Min Temperature 21 °F 20 °F -6 °F (2015)
Degree Days  
Heating Degree Days 37    
Moisture  
Dew Point 16 °F    
Average Humidity 62    
Maximum Humidity 80    
Minimum Humidity 48    
Precipitation  
Precipitation 0.00 in - - ()
Sea Level Pressure  
Sea Level Pressure 30.21 in    
Wind  
Wind Speed 13 mph (West)    
Max Wind Speed 21 mph    
Max Gust Speed 26 mph    
Visibility 10 miles    
Events      
Averages and records for this station are not official NWS values.
T = Trace of Precipitation, MM = Missing Value Source: NWS Daily Summary

Daily Weather History Graph

Daily Weather History Graph

Search for Another Location

Airport or City:

Trip Planner

Search our weather history database for the weather conditions in past years. The results will help you decide how hot, cold, wet, or windy it might be!

Date:

Astronomy

Jan. 08, 2000 Rise Set
Actual Time 7:35 AM EST 5:16 PM EST
Civil Twilight 7:06 AM EST 5:45 PM EST
Nautical Twilight 6:33 AM EST 6:18 PM EST
Astronomical Twilight 6:01 AM EST 6:50 PM EST
Moon 8:51 AM EST (1/8) 7:10 PM EST (1/8)
Length of Visible Light 10h 39m
Length of Day
9h 40m
Waxing Crescent, 3% of the Moon is Illuminated
Jan 8
Waxing Crescent
Jan 14
First Quarter
Jan 20
Full
Jan 28
Last Quarter
Feb 5
New

Hourly Weather History & Observations

Time (EST) Temp. Windchill Dew Point Humidity Pressure Visibility Wind Dir Wind Speed Gust Speed Precip Events Conditions
12:23 AM 24.8 °F 10.3 °F 15.8 °F 69% 30.22 in 10.0 mi WNW 20.7 mph - N/A   Clear
12:40 AM 24.8 °F 10.7 °F 17.6 °F 74% 30.22 in 10.0 mi WNW 19.6 mph 26.5 mph N/A   Clear
12:59 AM 24.8 °F 11.1 °F 15.8 °F 69% 30.22 in 10.0 mi WNW 18.4 mph 24.2 mph N/A   Clear
1:20 AM 24.8 °F 10.7 °F 15.8 °F 69% 30.22 in 10.0 mi WNW 19.6 mph - N/A   Clear
1:41 AM 23.0 °F 8.7 °F 15.8 °F 74% 30.22 in 10.0 mi WNW 18.4 mph 26.5 mph N/A   Clear
2:00 AM 23.0 °F 9.2 °F 15.8 °F 74% 30.22 in 10.0 mi WNW 17.3 mph 24.2 mph N/A   Clear
2:22 AM 23.0 °F 9.6 °F 15.8 °F 74% 30.23 in 10.0 mi WNW 16.1 mph 21.9 mph N/A   Clear
2:42 AM 23.0 °F 10.1 °F 15.8 °F 74% 30.23 in 10.0 mi WNW 15.0 mph - N/A   Clear
3:00 AM 23.0 °F 10.6 °F 15.8 °F 74% 30.24 in 10.0 mi WNW 13.8 mph - N/A   Clear
3:20 AM 21.2 °F 8.9 °F 15.8 °F 80% 30.24 in 10.0 mi West 12.7 mph - N/A   Clear
3:41 AM 21.2 °F 8.3 °F 15.8 °F 80% 30.24 in 10.0 mi West 13.8 mph - N/A   Clear
4:01 AM 21.2 °F 8.3 °F 15.8 °F 80% 30.23 in 10.0 mi West 13.8 mph - N/A   Clear
4:20 AM 21.2 °F 8.9 °F 15.8 °F 80% 30.23 in 10.0 mi West 12.7 mph - N/A   Clear
4:38 AM 21.2 °F 8.3 °F 14.0 °F 74% 30.23 in 10.0 mi West 13.8 mph - N/A   Clear
4:59 AM 21.2 °F 8.9 °F 14.0 °F 74% 30.23 in 10.0 mi West 12.7 mph - N/A   Clear
5:21 AM 21.2 °F 10.1 °F 14.0 °F 74% 30.23 in 10.0 mi West 10.4 mph - N/A   Clear
5:38 AM 21.2 °F 10.9 °F 14.0 °F 74% 30.23 in 10.0 mi WNW 9.2 mph - N/A   Clear
6:00 AM 21.2 °F 9.5 °F 14.0 °F 74% 30.24 in 10.0 mi West 11.5 mph - N/A   Clear
6:20 AM 21.2 °F 10.1 °F 15.8 °F 80% 30.23 in 10.0 mi West 10.4 mph - N/A   Clear
6:40 AM 21.2 °F 10.1 °F 14.0 °F 74% 30.24 in 10.0 mi West 10.4 mph - N/A   Clear
6:58 AM 21.2 °F 10.9 °F 12.2 °F 68% 30.24 in 10.0 mi West 9.2 mph - N/A   Clear
7:22 AM 21.2 °F 9.5 °F 12.2 °F 68% 30.25 in 10.0 mi West 11.5 mph - N/A   Clear
7:39 AM 21.2 °F 9.5 °F 12.2 °F 68% 30.26 in 10.0 mi West 11.5 mph - N/A   Clear
7:59 AM 21.2 °F 9.5 °F 14.0 °F 74% 30.25 in 10.0 mi West 11.5 mph - N/A   Clear
8:19 AM 24.8 °F 13.4 °F 15.8 °F 69% 30.26 in 10.0 mi West 12.7 mph - N/A   Clear
8:38 AM 24.8 °F 13.4 °F 12.2 °F 59% 30.26 in 10.0 mi West 12.7 mph - N/A   Clear
9:00 AM 26.6 °F 16.8 °F 14.0 °F 59% 30.25 in 10.0 mi West 10.4 mph - N/A   Clear
9:19 AM 26.6 °F 16.8 °F 12.2 °F 55% 30.26 in 10.0 mi West 10.4 mph - N/A   Clear
9:41 AM 26.6 °F 18.2 °F 14.0 °F 59% 30.26 in 10.0 mi West 8.1 mph - N/A   Unknown
9:59 AM 28.4 °F 22.2 °F 15.8 °F 59% 30.26 in 10.0 mi West 5.8 mph - N/A   Clear
10:19 AM 28.4 °F 19.7 °F 14.0 °F 55% 30.26 in 10.0 mi West 9.2 mph - N/A   Clear
10:38 AM 28.4 °F 19.1 °F - N/A% 30.25 in 10.0 mi WNW 10.4 mph - N/A   Unknown
10:59 AM 30.2 °F 23.4 °F 15.8 °F 55% 30.25 in 10.0 mi West 6.9 mph - N/A   Clear
11:20 AM 32.0 °F 23.6 °F 15.8 °F 51% 30.24 in 10.0 mi West 10.4 mph - N/A   Clear
11:39 AM 32.0 °F 24.2 °F 15.8 °F 51% 30.24 in 10.0 mi West 9.2 mph - N/A   Clear
11:58 AM 33.8 °F 27.7 °F 17.6 °F 52% 30.23 in 10.0 mi West 6.9 mph - N/A   Clear
12:18 PM 33.8 °F 28.6 °F 17.6 °F 52% 30.22 in 10.0 mi West 5.8 mph - N/A   Clear
12:39 PM 35.6 °F 30.7 °F 17.6 °F 48% 30.20 in 10.0 mi West 5.8 mph - N/A   Clear
12:59 PM 35.6 °F 31.7 °F 17.6 °F 48% 30.19 in 10.0 mi West 4.6 mph - N/A   Clear
1:20 PM 35.6 °F - 17.6 °F 48% 30.19 in 10.0 mi Calm Calm - N/A   Clear
1:39 PM 35.6 °F - 17.6 °F 48% 30.17 in 10.0 mi Calm Calm - N/A   Clear
1:59 PM 35.6 °F - 17.6 °F 48% 30.18 in 10.0 mi Calm Calm - N/A   Clear
2:20 PM 35.6 °F 30.7 °F 17.6 °F 48% 30.17 in 10.0 mi South 5.8 mph - N/A   Clear
2:39 PM 35.6 °F 32.8 °F 19.4 °F 52% 30.17 in 10.0 mi WSW 3.5 mph - N/A   Clear
2:59 PM 35.6 °F 32.8 °F 19.4 °F 52% 30.17 in 10.0 mi SSE 3.5 mph - N/A   Clear
3:19 PM 35.6 °F 32.8 °F 19.4 °F 52% 30.16 in 10.0 mi SW 3.5 mph - N/A   Clear
3:41 PM 33.8 °F 29.6 °F 17.6 °F 52% 30.17 in 10.0 mi South 4.6 mph - N/A   Scattered Clouds
3:59 PM 32.0 °F 26.4 °F 17.6 °F 55% 30.17 in 10.0 mi SSW 5.8 mph - N/A   Scattered Clouds
4:18 PM 32.0 °F 28.7 °F 19.4 °F 60% 30.16 in 10.0 mi SW 3.5 mph - N/A   Scattered Clouds
4:41 PM 33.8 °F 29.6 °F 17.6 °F 52% 30.15 in 10.0 mi SSW 4.6 mph - N/A   Scattered Clouds
5:00 PM 33.8 °F 28.6 °F 17.6 °F 52% 30.14 in 10.0 mi WSW 5.8 mph - N/A   Scattered Clouds
5:18 PM 35.6 °F 29.2 °F 17.6 °F 48% 30.14 in 10.0 mi WSW 8.1 mph - N/A   Mostly Cloudy
5:38 PM 35.6 °F 29.2 °F 17.6 °F 48% 30.14 in 10.0 mi SW 8.1 mph - N/A   Mostly Cloudy
5:58 PM 33.8 °F 27.7 °F 15.8 °F 48% 30.13 in 10.0 mi SW 6.9 mph - N/A   Overcast
6:19 PM 33.8 °F 27.0 °F 15.8 °F 48% 30.14 in 10.0 mi SSW 8.1 mph - N/A   Mostly Cloudy
6:40 PM 33.8 °F 27.0 °F 17.6 °F 52% 30.15 in 10.0 mi SW 8.1 mph - N/A   Mostly Cloudy
6:58 PM 33.8 °F 26.4 °F 17.6 °F 52% 30.15 in 10.0 mi SW 9.2 mph - N/A   Mostly Cloudy
7:18 PM 35.6 °F 27.5 °F 19.4 °F 52% 30.15 in 10.0 mi West 11.5 mph 17.3 mph N/A   Overcast
7:38 PM 33.8 °F 25.8 °F 17.6 °F 52% 30.14 in 10.0 mi West 10.4 mph - N/A   Overcast
7:59 PM 35.6 °F 27.1 °F 19.4 °F 52% 30.13 in 10.0 mi West 12.7 mph - N/A   Overcast
8:19 PM 35.6 °F 27.1 °F 23.0 °F 60% 30.14 in 10.0 mi West 12.7 mph - N/A   Overcast
8:39 PM 35.6 °F 27.5 °F 23.0 °F 60% 30.13 in 10.0 mi West 11.5 mph - N/A   Overcast
9:00 PM 35.6 °F 28.6 °F 23.0 °F 60% 30.13 in 10.0 mi West 9.2 mph - N/A   Overcast
9:19 PM 35.6 °F 29.2 °F 21.2 °F 56% 30.13 in 10.0 mi West 8.1 mph - N/A   Overcast
9:40 PM 35.6 °F 28.6 °F 21.2 °F 56% 30.13 in 10.0 mi West 9.2 mph - N/A   Overcast
9:59 PM 35.6 °F 28.6 °F 21.2 °F 56% 30.13 in 10.0 mi WSW 9.2 mph - N/A   Overcast
10:18 PM 35.6 °F 29.2 °F 21.2 °F 56% 30.12 in 10.0 mi WSW 8.1 mph - N/A   Overcast
10:40 PM 33.8 °F 26.4 °F 21.2 °F 60% 30.12 in 10.0 mi West 9.2 mph - N/A   Mostly Cloudy
11:01 PM 35.6 °F 28.0 °F 23.0 °F 60% 30.12 in 10.0 mi West 10.4 mph - N/A   Overcast
11:18 PM 35.6 °F 28.0 °F 23.0 °F 60% 30.11 in 10.0 mi West 10.4 mph - N/A   Overcast
11:41 PM 35.6 °F 28.6 °F 24.8 °F 65% 30.10 in 10.0 mi West 9.2 mph - N/A   Overcast
11:59 PM 35.6 °F 28.6 °F 23.0 °F 60% 30.09 in 10.0 mi West 9.2 mph - N/A   Overcast